Time;durP1;ratioP1;P1;durP2;ratioP2;P2;SDS_P1;SDS_P2;PMS_P1;PMS_P2;Temp;Humidity;BMP_temperature;BMP_pressure;BME280_temperature;BME280_humidity;BME280_pressure;Samples;Min_cycle;Max_cycle;Signal;HPM_P1;HPM_P2
2023/09/19 00:02:04;;;;;;;10.27;2.47;;;15.30;99.90;;;;;;4985785;28;20050;-52
2023/09/19 00:04:32;;;;;;;10.98;2.10;;;15.20;99.90;;;;;;4986316;28;20704;-51
2023/09/19 00:06:58;;;;;;;6.90;1.83;;;15.20;99.90;;;;;;4985698;28;20065;-50
2023/09/19 00:09:27;;;;;;;8.18;2.28;;;15.20;99.90;;;;;;4985475;28;20066;-51
2023/09/19 00:11:53;;;;;;;7.55;2.03;;;15.00;99.90;;;;;;4985441;28;20034;-49
2023/09/19 00:14:19;;;;;;;7.20;1.90;;;15.00;99.90;;;;;;4985972;28;20398;-52
2023/09/19 00:16:46;;;;;;;9.80;2.35;;;15.00;99.90;;;;;;4984935;28;20121;-53
2023/09/19 00:19:13;;;;;;;6.15;2.08;;;14.90;99.90;;;;;;4985253;28;20642;-53
2023/09/19 00:21:40;;;;;;;11.38;2.40;;;14.90;99.90;;;;;;4985929;28;20042;-51
2023/09/19 00:24:06;;;;;;;9.38;2.40;;;14.90;99.90;;;;;;4985657;28;20061;-52
2023/09/19 00:26:34;;;;;;;7.20;2.13;;;14.80;99.90;;;;;;4984118;28;20444;-52
2023/09/19 00:29:05;;;;;;;11.85;2.63;;;14.90;99.90;;;;;;4984715;28;20487;-49
2023/09/19 00:31:31;;;;;;;9.85;2.80;;;14.80;99.90;;;;;;4979175;28;20138;-50
2023/09/19 00:33:59;;;;;;;9.88;2.65;;;14.70;99.90;;;;;;4965601;28;20126;-49
2023/09/19 00:36:25;;;;;;;9.23;1.90;;;14.70;99.90;;;;;;4966136;28;20145;-50
2023/09/19 00:38:51;;;;;;;7.47;2.20;;;14.60;99.90;;;;;;4966089;28;20126;-50
2023/09/19 00:41:17;;;;;;;7.38;2.25;;;14.60;99.90;;;;;;4965294;28;20051;-51
2023/09/19 00:43:42;;;;;;;9.20;2.13;;;14.80;99.90;;;;;;4965128;28;20126;-53
2023/09/19 00:46:08;;;;;;;9.50;1.80;;;14.40;99.90;;;;;;4965652;28;20074;-53
2023/09/19 00:48:41;;;;;;;9.27;2.33;;;14.80;99.90;;;;;;4965610;28;20574;-53
2023/09/19 00:51:07;;;;;;;7.10;2.33;;;14.50;99.90;;;;;;4964652;28;20097;-49
2023/09/19 00:53:34;;;;;;;8.65;1.88;;;14.60;99.90;;;;;;4965546;28;20062;-49
2023/09/19 00:56:00;;;;;;;8.77;1.85;;;14.40;99.90;;;;;;4966152;28;20082;-48
2023/09/19 00:58:25;;;;;;;11.88;2.53;;;14.50;99.90;;;;;;4962351;28;20086;-53
2023/09/19 01:00:53;;;;;;;9.00;1.92;;;14.40;99.90;;;;;;4963951;28;20058;-48
2023/09/19 01:03:19;;;;;;;9.93;1.98;;;14.30;99.90;;;;;;4966644;28;20073;-51
2023/09/19 01:05:44;;;;;;;8.90;2.17;;;14.20;99.90;;;;;;4980900;28;20628;-53
2023/09/19 01:08:11;;;;;;;9.23;2.72;;;14.20;99.90;;;;;;4964695;28;20051;-50
2023/09/19 01:10:46;;;;;;;6.80;2.03;;;14.30;99.90;;;;;;4965608;28;20046;-52
2023/09/19 01:13:31;;;;;;;8.10;1.90;;;14.30;99.90;;;;;;5050860;23;20054;-50
2023/09/19 01:16:11;;;;;;;7.70;2.00;;;14.20;99.90;;;;;;4993120;28;20049;-51
2023/09/19 01:19:18;;;;;;;9.85;2.00;;;14.20;99.90;;;;;;5001940;28;20056;-50
2023/09/19 01:22:13;;;;;;;7.50;2.25;;;14.20;99.90;;;;;;4985424;28;20053;-49
2023/09/19 01:25:10;;;;;;;11.00;2.28;;;14.10;99.90;;;;;;4990089;28;20054;-50
2023/09/19 01:28:13;;;;;;;8.07;2.10;;;14.00;99.90;;;;;;5001884;28;20396;-53
2023/09/19 01:30:43;;;;;;;7.60;1.98;;;14.00;99.90;;;;;;4997060;28;20096;-49
2023/09/19 01:33:10;;;;;;;9.90;2.42;;;14.00;99.90;;;;;;4999825;28;20105;-48
2023/09/19 01:35:38;;;;;;;9.95;2.05;;;13.90;99.90;;;;;;4986438;28;20054;-51
2023/09/19 01:38:07;;;;;;;10.20;2.15;;;14.00;99.90;;;;;;5003855;28;20571;-53
2023/09/19 01:40:41;;;;;;;9.63;1.98;;;13.90;99.90;;;;;;5003934;28;20041;-51
2023/09/19 01:43:27;;;;;;;10.68;2.42;;;13.90;99.90;;;;;;4997667;28;20070;-52
2023/09/19 01:46:13;;;;;;;9.20;2.35;;;13.90;99.90;;;;;;4983172;28;20054;-51
2023/09/19 01:49:06;;;;;;;8.13;1.88;;;13.80;99.90;;;;;;5001063;28;20263;-52
2023/09/19 01:51:34;;;;;;;11.63;2.20;;;13.80;99.90;;;;;;5003941;28;20052;-53
2023/09/19 01:54:08;;;;;;;9.70;2.10;;;13.80;99.90;;;;;;5003613;28;20046;-53
2023/09/19 01:56:45;;;;;;;10.50;2.47;;;13.70;99.90;;;;;;5003791;28;20127;-52
2023/09/19 01:59:15;;;;;;;14.63;2.80;;;13.70;99.90;;;;;;5003551;28;20053;-53
2023/09/19 02:01:44;;;;;;;8.90;1.92;;;13.70;99.90;;;;;;5002895;28;20041;-52
2023/09/19 02:04:10;;;;;;;11.32;2.00;;;13.70;99.90;;;;;;4989398;28;20061;-52
2023/09/19 02:06:40;;;;;;;9.57;2.10;;;13.60;99.90;;;;;;4985118;28;20038;-54
2023/09/19 02:09:05;;;;;;;12.68;2.65;;;13.60;99.90;;;;;;4996692;28;20073;-53
2023/09/19 02:11:31;;;;;;;8.63;2.10;;;13.50;99.90;;;;;;5003137;28;20037;-50
2023/09/19 02:13:59;;;;;;;14.23;2.47;;;13.40;99.90;;;;;;4985973;28;20058;-51
2023/09/19 02:16:25;;;;;;;8.68;2.30;;;13.40;99.90;;;;;;5003708;28;20081;-49
2023/09/19 02:18:51;;;;;;;10.75;2.35;;;13.40;99.90;;;;;;4999616;28;20042;-49
2023/09/19 02:21:17;;;;;;;11.90;2.92;;;13.50;99.90;;;;;;4984114;28;20047;-49
2023/09/19 02:23:44;;;;;;;14.00;2.47;;;13.70;99.90;;;;;;4982982;28;20097;-49
2023/09/19 02:26:11;;;;;;;10.55;2.20;;;13.50;99.90;;;;;;4985587;28;20046;-49
2023/09/19 02:28:37;;;;;;;12.35;2.38;;;13.50;99.90;;;;;;5003435;28;20049;-53
2023/09/19 02:31:05;;;;;;;8.40;2.30;;;13.40;99.90;;;;;;4997857;28;20108;-51
2023/09/19 02:33:32;;;;;;;12.00;2.83;;;13.60;99.90;;;;;;5002406;28;20128;-53
2023/09/19 02:35:59;;;;;;;13.15;2.70;;;13.30;99.90;;;;;;4986707;28;20053;-52
2023/09/19 02:38:25;;;;;;;11.40;2.25;;;13.30;99.90;;;;;;4985456;28;20046;-49
2023/09/19 02:40:55;;;;;;;10.52;3.05;;;13.50;99.90;;;;;;4987355;28;20150;-50
2023/09/19 02:43:21;;;;;;;9.30;2.20;;;13.70;99.90;;;;;;4996529;28;20373;-54
2023/09/19 02:45:49;;;;;;;10.63;2.40;;;13.40;99.90;;;;;;5006461;28;20046;-49
2023/09/19 02:48:15;;;;;;;10.13;2.35;;;13.40;99.90;;;;;;5006829;28;20048;-50
2023/09/19 02:50:41;;;;;;;10.95;2.30;;;13.30;99.90;;;;;;5007128;28;20129;-50
2023/09/19 02:53:07;;;;;;;10.60;2.60;;;13.20;99.90;;;;;;5006684;28;20787;-52
2023/09/19 02:55:33;;;;;;;8.88;2.38;;;13.40;99.90;;;;;;5005649;28;20045;-51
2023/09/19 02:58:01;;;;;;;11.45;2.60;;;13.40;99.90;;;;;;5005579;28;20069;-51
2023/09/19 03:00:27;;;;;;;9.48;2.47;;;13.40;99.90;;;;;;5006347;28;20084;-51
2023/09/19 03:02:56;;;;;;;10.25;2.08;;;13.40;99.90;;;;;;5006287;28;20077;-52
2023/09/19 03:05:23;;;;;;;11.10;2.33;;;13.40;99.90;;;;;;5007003;28;20046;-55
2023/09/19 03:07:50;;;;;;;7.18;2.42;;;13.60;99.90;;;;;;5006834;28;20305;-52
2023/09/19 03:10:20;;;;;;;12.63;2.67;;;13.50;99.90;;;;;;5006250;28;20045;-53
2023/09/19 03:12:46;;;;;;;11.55;2.70;;;13.40;99.90;;;;;;5003762;28;20076;-50
2023/09/19 03:15:15;;;;;;;14.23;2.95;;;13.40;99.90;;;;;;5006713;28;20138;-52
2023/09/19 03:17:43;;;;;;;14.20;2.50;;;13.30;99.90;;;;;;5006440;28;20132;-52
2023/09/19 03:20:12;;;;;;;11.55;2.55;;;13.70;99.90;;;;;;5006689;28;20048;-53
2023/09/19 03:22:38;;;;;;;9.13;2.35;;;13.40;99.90;;;;;;5006708;28;20599;-49
2023/09/19 03:25:07;;;;;;;9.52;2.70;;;13.30;99.90;;;;;;5005857;28;20610;-52
2023/09/19 03:27:36;;;;;;;10.88;2.60;;;13.30;99.90;;;;;;5005557;28;20057;-50
2023/09/19 03:30:08;;;;;;;10.68;2.60;;;13.30;99.90;;;;;;5004480;28;20042;-52
2023/09/19 03:32:43;;;;;;;7.65;2.45;;;13.30;99.90;;;;;;4993998;28;20129;-51
2023/09/19 03:35:09;;;;;;;9.45;2.30;;;13.30;99.90;;;;;;4986779;28;20053;-51
2023/09/19 03:37:34;;;;;;;9.88;2.72;;;13.30;99.90;;;;;;4986658;28;20050;-53
2023/09/19 03:40:04;;;;;;;9.77;2.63;;;13.30;99.90;;;;;;4986333;28;20536;-49
2023/09/19 03:42:30;;;;;;;8.88;2.30;;;13.40;99.90;;;;;;4985917;28;20046;-50
2023/09/19 03:44:56;;;;;;;8.18;2.38;;;13.30;99.90;;;;;;4969493;28;20054;-48
2023/09/19 03:47:22;;;;;;;10.52;2.83;;;13.40;99.90;;;;;;4986513;28;20073;-52
2023/09/19 03:49:48;;;;;;;13.15;2.60;;;13.60;99.90;;;;;;4986380;28;20527;-50
2023/09/19 03:52:15;;;;;;;13.05;2.70;;;13.30;99.90;;;;;;4987220;28;20046;-51
2023/09/19 03:54:41;;;;;;;13.45;2.97;;;13.30;99.90;;;;;;4985991;28;20061;-54
2023/09/19 03:57:07;;;;;;;8.00;2.28;;;13.20;99.90;;;;;;5000100;28;20050;-49
2023/09/19 03:59:32;;;;;;;11.43;2.83;;;13.20;99.90;;;;;;4986339;28;20043;-53
2023/09/19 04:01:59;;;;;;;11.65;2.63;;;13.30;99.90;;;;;;4987380;28;20050;-51
2023/09/19 04:04:25;;;;;;;9.23;2.20;;;13.50;99.90;;;;;;4994860;28;20053;-55
2023/09/19 04:06:53;;;;;;;10.23;2.70;;;13.20;99.90;;;;;;4986364;28;20481;-51
2023/09/19 04:09:18;;;;;;;10.85;2.80;;;13.20;99.90;;;;;;4986485;28;20735;-51
2023/09/19 04:11:44;;;;;;;8.48;2.47;;;13.20;99.90;;;;;;4985465;28;20081;-51
2023/09/19 04:14:10;;;;;;;10.35;2.83;;;13.20;99.90;;;;;;4985647;28;20054;-52
2023/09/19 04:16:36;;;;;;;10.88;2.42;;;13.20;99.90;;;;;;4986374;28;20042;-51
2023/09/19 04:19:02;;;;;;;9.88;2.50;;;13.20;99.90;;;;;;4985661;28;20080;-51
2023/09/19 04:21:29;;;;;;;13.10;2.47;;;13.20;99.90;;;;;;4986258;28;20073;-48
2023/09/19 04:23:54;;;;;;;8.82;2.58;;;13.10;99.90;;;;;;4985638;28;20053;-53
2023/09/19 04:26:21;;;;;;;8.50;2.08;;;13.20;99.90;;;;;;4986188;28;20042;-48
2023/09/19 04:28:47;;;;;;;9.30;2.33;;;13.30;99.90;;;;;;4985661;28;20096;-49
2023/09/19 04:31:13;;;;;;;7.45;2.40;;;13.30;99.90;;;;;;4992708;28;20078;-51
2023/09/19 04:33:39;;;;;;;9.82;2.15;;;13.40;99.90;;;;;;4987770;28;20117;-49
2023/09/19 04:36:07;;;;;;;9.05;2.55;;;13.40;99.90;;;;;;4985452;28;20125;-49
2023/09/19 04:38:33;;;;;;;9.18;2.60;;;13.40;99.90;;;;;;4985849;28;20106;-53
2023/09/19 04:40:59;;;;;;;7.25;2.40;;;13.50;99.90;;;;;;4999071;28;20050;-51
2023/09/19 04:43:25;;;;;;;11.88;2.63;;;13.50;99.90;;;;;;4985322;28;20093;-53
2023/09/19 04:45:54;;;;;;;5.95;2.17;;;13.50;99.90;;;;;;4983857;28;20058;-50
2023/09/19 04:48:19;;;;;;;6.97;2.15;;;13.60;99.90;;;;;;4985449;28;20053;-49
2023/09/19 04:50:45;;;;;;;10.02;2.35;;;13.50;99.90;;;;;;4985515;28;20034;-51
2023/09/19 04:53:11;;;;;;;8.20;2.40;;;13.40;99.90;;;;;;4999386;28;20133;-52
2023/09/19 04:55:36;;;;;;;9.68;2.78;;;13.70;99.90;;;;;;4985445;28;20707;-52
2023/09/19 04:58:02;;;;;;;10.20;2.78;;;13.50;99.90;;;;;;4983857;28;20129;-50
2023/09/19 05:00:30;;;;;;;8.02;2.13;;;13.40;99.90;;;;;;4984162;28;20046;-54
2023/09/19 05:02:56;;;;;;;8.50;2.75;;;13.50;99.90;;;;;;4983346;28;20421;-51
2023/09/19 05:05:23;;;;;;;8.40;2.92;;;13.60;99.90;;;;;;4984080;28;20071;-53
2023/09/19 05:07:50;;;;;;;9.88;2.35;;;14.10;99.90;;;;;;4984839;28;20054;-49
2023/09/19 05:10:18;;;;;;;9.32;2.42;;;13.60;99.90;;;;;;4984696;28;20488;-49
2023/09/19 05:12:47;;;;;;;10.90;2.35;;;13.60;99.90;;;;;;4984090;28;20074;-49
2023/09/19 05:15:12;;;;;;;8.80;2.60;;;13.60;99.90;;;;;;4989477;28;20084;-52
2023/09/19 05:17:39;;;;;;;10.45;2.53;;;13.60;99.90;;;;;;5003992;28;20682;-53
2023/09/19 05:20:16;;;;;;;10.23;2.95;;;13.60;99.90;;;;;;5004037;28;20049;-51
2023/09/19 05:22:43;;;;;;;9.80;2.47;;;13.60;99.90;;;;;;5003831;28;20046;-51
2023/09/19 05:25:15;;;;;;;8.43;2.70;;;13.60;99.90;;;;;;5004235;28;20073;-51
2023/09/19 05:27:42;;;;;;;7.53;2.80;;;13.70;99.90;;;;;;5003035;28;20068;-51
2023/09/19 05:30:08;;;;;;;8.93;2.58;;;13.70;99.90;;;;;;4986294;28;20046;-49
2023/09/19 05:32:34;;;;;;;8.93;2.58;;;13.70;99.90;;;;;;4992521;28;20084;-50
2023/09/19 05:34:59;;;;;;;9.32;2.65;;;13.70;99.90;;;;;;5004154;28;20085;-50
2023/09/19 05:37:26;;;;;;;9.88;2.70;;;13.70;99.90;;;;;;5004209;28;20050;-52
2023/09/19 05:39:53;;;;;;;10.27;2.75;;;13.70;99.90;;;;;;4998725;28;20389;-50
2023/09/19 05:42:19;;;;;;;10.43;2.60;;;13.80;99.90;;;;;;4982282;28;20497;-53
2023/09/19 05:44:44;;;;;;;11.35;3.30;;;13.70;99.90;;;;;;4984269;28;20069;-49
2023/09/19 05:47:10;;;;;;;12.02;2.90;;;13.60;99.90;;;;;;4983396;28;20042;-52
2023/09/19 05:49:39;;;;;;;9.13;2.65;;;13.70;99.90;;;;;;5001091;28;20426;-49
2023/09/19 05:52:08;;;;;;;10.48;2.67;;;13.70;99.90;;;;;;5004251;28;20034;-52
2023/09/19 05:54:37;;;;;;;10.65;2.90;;;13.70;99.90;;;;;;5003548;28;20049;-50
2023/09/19 05:57:03;;;;;;;10.43;3.17;;;13.70;99.90;;;;;;5003307;28;20042;-48
2023/09/19 05:59:29;;;;;;;11.13;2.80;;;13.70;99.90;;;;;;4997032;28;20523;-50
2023/09/19 06:01:55;;;;;;;13.55;3.45;;;13.80;99.90;;;;;;4985382;28;20050;-48
2023/09/19 06:04:21;;;;;;;9.80;2.90;;;13.80;99.90;;;;;;4984470;28;20121;-49
2023/09/19 06:06:48;;;;;;;12.10;3.30;;;13.80;99.90;;;;;;4984093;28;20046;-48
2023/09/19 06:09:14;;;;;;;12.18;3.00;;;13.70;99.90;;;;;;4984250;28;20054;-48
2023/09/19 06:11:41;;;;;;;11.23;3.00;;;13.70;99.90;;;;;;4985906;28;20053;-49
2023/09/19 06:14:07;;;;;;;11.48;3.05;;;13.90;99.90;;;;;;5003718;28;20062;-51
2023/09/19 06:16:33;;;;;;;10.10;3.33;;;13.90;99.90;;;;;;5003772;28;20125;-50
2023/09/19 06:18:59;;;;;;;11.15;3.25;;;13.80;99.90;;;;;;5003706;28;20056;-49
2023/09/19 06:21:26;;;;;;;13.30;3.05;;;14.00;99.90;;;;;;5002923;28;20044;-50
2023/09/19 06:23:53;;;;;;;13.60;3.47;;;13.80;99.90;;;;;;5003387;28;20057;-50
2023/09/19 06:26:18;;;;;;;11.98;2.90;;;13.90;99.90;;;;;;4996305;28;20099;-51
2023/09/19 06:28:44;;;;;;;9.77;2.80;;;13.90;99.90;;;;;;4988672;28;20042;-51
2023/09/19 06:31:10;;;;;;;10.13;2.65;;;13.90;99.90;;;;;;4995118;28;20764;-51
2023/09/19 06:33:39;;;;;;;10.52;2.75;;;13.90;99.90;;;;;;4987147;28;20101;-50
2023/09/19 06:36:07;;;;;;;13.82;3.15;;;14.00;99.90;;;;;;4983684;28;20580;-48
2023/09/19 06:38:35;;;;;;;9.00;2.78;;;14.00;99.90;;;;;;4983304;28;20501;-53
2023/09/19 06:41:04;;;;;;;14.10;2.95;;;13.90;99.90;;;;;;4993748;28;20133;-50
2023/09/19 06:43:31;;;;;;;13.75;3.17;;;14.10;99.90;;;;;;5003959;28;20084;-51
2023/09/19 06:45:57;;;;;;;11.93;2.58;;;14.00;99.90;;;;;;5001552;28;20046;-50
2023/09/19 06:48:24;;;;;;;12.40;2.80;;;14.00;99.90;;;;;;5003048;28;20048;-49
2023/09/19 06:50:52;;;;;;;11.90;2.70;;;14.10;99.90;;;;;;5001484;28;20050;-52
2023/09/19 06:53:18;;;;;;;8.55;2.40;;;14.00;99.90;;;;;;5001793;28;20053;-50
2023/09/19 06:55:45;;;;;;;12.63;2.78;;;14.10;99.90;;;;;;5001797;28;20037;-51
2023/09/19 06:58:11;;;;;;;11.55;2.78;;;14.10;99.90;;;;;;5002784;28;20060;-51
2023/09/19 07:00:38;;;;;;;10.88;2.80;;;14.10;99.90;;;;;;5003191;28;20034;-55
2023/09/19 07:03:10;;;;;;;8.95;2.63;;;14.10;99.90;;;;;;5002464;28;20085;-48
2023/09/19 07:05:37;;;;;;;11.48;2.63;;;14.20;99.90;;;;;;5002752;28;20052;-53
2023/09/19 07:08:03;;;;;;;11.52;2.75;;;14.10;99.90;;;;;;5001912;28;20042;-49
2023/09/19 07:10:30;;;;;;;14.23;2.67;;;14.30;99.90;;;;;;5001893;28;20049;-53
2023/09/19 07:12:59;;;;;;;10.80;2.85;;;14.30;99.90;;;;;;5001456;28;20769;-48
2023/09/19 07:15:26;;;;;;;10.35;2.92;;;14.40;99.90;;;;;;5003181;28;20057;-49
2023/09/19 07:17:53;;;;;;;10.75;2.53;;;14.40;99.90;;;;;;5004945;28;20077;-51
2023/09/19 07:20:19;;;;;;;11.25;3.08;;;14.50;99.90;;;;;;4991589;28;20597;-52
2023/09/19 07:22:47;;;;;;;11.88;2.55;;;14.50;99.90;;;;;;5005728;28;20042;-50
2023/09/19 07:25:14;;;;;;;10.90;2.70;;;14.60;99.90;;;;;;4994819;28;20052;-50
2023/09/19 07:27:41;;;;;;;7.18;2.35;;;14.70;99.90;;;;;;4985537;28;20129;-53
2023/09/19 07:30:08;;;;;;;13.43;2.97;;;14.80;99.90;;;;;;4998475;28;20053;-53
2023/09/19 07:32:36;;;;;;;13.73;3.38;;;14.80;99.90;;;;;;4996131;28;20416;-48
2023/09/19 07:35:02;;;;;;;8.77;2.22;;;14.80;99.90;;;;;;4987799;28;20046;-51
2023/09/19 07:37:32;;;;;;;11.25;3.13;;;14.90;99.90;;;;;;4985775;28;20050;-49
2023/09/19 07:39:59;;;;;;;10.40;2.55;;;14.90;99.90;;;;;;4985929;28;20058;-50
2023/09/19 07:42:25;;;;;;;12.20;2.47;;;14.90;99.90;;;;;;4984141;28;20046;-50
2023/09/19 07:44:50;;;;;;;14.27;3.38;;;15.20;99.90;;;;;;4984642;28;20389;-55
2023/09/19 07:47:16;;;;;;;9.68;2.28;;;15.00;99.90;;;;;;4986543;28;20038;-50
2023/09/19 07:49:42;;;;;;;9.65;2.58;;;15.10;99.90;;;;;;4986563;28;20558;-50
2023/09/19 07:52:09;;;;;;;11.13;2.83;;;15.00;99.90;;;;;;4986188;28;20049;-51
2023/09/19 07:54:36;;;;;;;8.82;2.40;;;15.10;99.90;;;;;;4984570;28;20061;-53
2023/09/19 07:57:04;;;;;;;11.30;2.60;;;15.10;99.90;;;;;;4985788;28;20049;-51
2023/09/19 07:59:30;;;;;;;12.38;2.60;;;15.10;99.90;;;;;;4986499;28;20046;-47
2023/09/19 08:01:55;;;;;;;13.10;2.80;;;15.20;99.90;;;;;;4984087;28;20061;-48
2023/09/19 08:04:21;;;;;;;7.03;1.92;;;15.20;99.90;;;;;;4986107;28;20153;-51
2023/09/19 08:06:47;;;;;;;10.88;2.80;;;15.20;99.90;;;;;;4986996;28;20041;-50
2023/09/19 08:09:17;;;;;;;8.32;2.40;;;15.30;99.90;;;;;;4992749;28;20049;-50
2023/09/19 08:11:42;;;;;;;15.00;2.97;;;15.30;99.90;;;;;;5003939;28;20046;-47
2023/09/19 08:14:08;;;;;;;13.90;3.50;;;15.20;99.90;;;;;;5005604;28;20080;-50
2023/09/19 08:16:34;;;;;;;9.65;2.38;;;15.30;99.90;;;;;;5005707;28;20057;-48
2023/09/19 08:18:59;;;;;;;11.32;2.50;;;15.40;99.90;;;;;;5005168;28;20034;-53
2023/09/19 08:21:27;;;;;;;8.75;2.25;;;15.30;99.90;;;;;;4995860;28;20038;-48
2023/09/19 08:23:53;;;;;;;10.38;2.75;;;15.30;99.90;;;;;;4985725;28;20050;-50
2023/09/19 08:26:19;;;;;;;10.85;2.70;;;15.50;99.90;;;;;;4985044;28;20049;-51
2023/09/19 08:28:45;;;;;;;11.23;2.80;;;15.40;99.90;;;;;;4982899;28;20046;-50
2023/09/19 08:31:10;;;;;;;10.70;3.03;;;15.60;99.90;;;;;;4993344;28;20052;-50
2023/09/19 08:33:37;;;;;;;11.75;2.20;;;15.60;99.90;;;;;;5001140;28;20682;-52
2023/09/19 08:36:07;;;;;;;11.57;2.65;;;15.70;99.90;;;;;;4985136;28;20077;-51
2023/09/19 08:38:34;;;;;;;9.27;2.65;;;15.80;99.90;;;;;;4985460;28;20051;-50
2023/09/19 08:41:01;;;;;;;9.63;2.33;;;15.90;99.90;;;;;;4985118;28;20381;-49
2023/09/19 08:43:27;;;;;;;8.25;3.20;;;16.10;99.90;;;;;;4985155;28;20046;-49
2023/09/19 08:46:09;;;;;;;9.38;2.40;;;16.20;99.90;;;;;;4983980;28;20046;-51
2023/09/19 08:48:58;;;;;;;10.50;2.55;;;16.20;99.90;;;;;;4984528;28;20145;-50
2023/09/19 08:51:30;;;;;;;10.90;2.63;;;16.30;99.90;;;;;;4985182;28;20670;-49
2023/09/19 08:54:09;;;;;;;12.65;2.75;;;16.30;99.90;;;;;;4985137;28;20517;-51
2023/09/19 08:56:39;;;;;;;8.55;2.38;;;16.40;99.90;;;;;;4984470;28;20049;-48
2023/09/19 08:59:12;;;;;;;11.05;2.42;;;16.50;99.90;;;;;;4985820;28;20054;-48
2023/09/19 09:01:41;;;;;;;12.02;2.60;;;16.70;99.90;;;;;;4985984;28;20100;-51
2023/09/19 09:04:09;;;;;;;8.63;3.00;;;16.80;99.90;;;;;;4983781;28;20042;-51
2023/09/19 09:06:35;;;;;;;9.32;2.42;;;16.80;99.90;;;;;;4982529;28;20325;-50
2023/09/19 09:09:03;;;;;;;7.72;2.42;;;17.00;99.90;;;;;;4999567;28;20061;-49
2023/09/19 09:11:29;;;;;;;11.60;3.28;;;16.90;99.90;;;;;;5002591;28;20077;-54
2023/09/19 09:13:55;;;;;;;13.20;3.03;;;16.90;99.90;;;;;;4991399;28;20440;-50
2023/09/19 09:16:20;;;;;;;13.88;3.13;;;16.80;99.90;;;;;;4999002;28;20042;-54
2023/09/19 09:18:52;;;;;;;12.15;3.25;;;16.70;99.90;;;;;;5002047;28;20042;-53
2023/09/19 09:21:18;;;;;;;17.48;3.92;;;16.70;99.90;;;;;;5002999;28;20142;-49
2023/09/19 09:23:44;;;;;;;12.65;3.20;;;16.80;99.90;;;;;;5002123;28;20137;-49
2023/09/19 09:26:10;;;;;;;10.32;3.83;;;16.90;99.90;;;;;;4984885;28;20051;-50
2023/09/19 09:28:44;;;;;;;10.15;3.40;;;17.00;99.90;;;;;;4983592;28;20046;-48
2023/09/19 09:31:22;;;;;;;11.60;3.17;;;17.00;99.90;;;;;;4992270;28;20473;-53
2023/09/19 09:33:55;;;;;;;11.15;3.40;;;17.10;99.90;;;;;;4998549;28;20070;-50
2023/09/19 09:36:38;;;;;;;10.88;2.92;;;17.30;99.90;;;;;;5004343;28;20239;-52
2023/09/19 09:39:24;;;;;;;9.73;3.17;;;17.40;99.90;;;;;;5002740;28;20068;-49
2023/09/19 09:41:50;;;;;;;13.98;3.45;;;17.40;99.90;;;;;;4997207;28;20504;-49
2023/09/19 09:44:17;;;;;;;10.35;3.13;;;17.30;99.90;;;;;;4984881;28;20046;-52
2023/09/19 09:49:32;;;;;;;13.15;2.97;;;17.50;99.90;;;;;;4984344;28;20050;-49
2023/09/19 09:52:05;;;;;;;13.18;3.20;;;17.60;99.90;;;;;;4983435;28;20050;-51
2023/09/19 09:54:38;;;;;;;12.48;3.08;;;17.80;99.90;;;;;;4984561;28;20065;-49
2023/09/19 09:57:25;;;;;;;14.35;3.15;;;17.90;99.90;;;;;;4982662;28;20050;-50
2023/09/19 10:02:42;;;;;;;9.73;2.47;;;18.10;99.90;;;;;;4984236;28;20058;-52
2023/09/19 10:07:53;;;;;;;11.57;2.60;;;18.00;99.90;;;;;;4984154;28;20058;-49
2023/09/19 10:10:53;;;;;;;11.88;3.05;;;18.00;99.90;;;;;;4982167;28;20038;-48
2023/09/19 10:13:25;;;;;;;20.13;3.03;;;18.20;99.90;;;;;;4983754;28;20137;-51
2023/09/19 10:15:55;;;;;;;12.18;2.90;;;18.10;99.90;;;;;;4984079;28;20053;-55
2023/09/19 10:18:25;;;;;;;14.52;3.08;;;18.10;99.90;;;;;;4986757;28;20137;-50
2023/09/19 10:20:51;;;;;;;13.05;2.60;;;18.20;99.90;;;;;;4997208;28;20042;-50
2023/09/19 10:23:25;;;;;;;12.02;2.55;;;18.30;99.90;;;;;;5001743;28;20046;-48
2023/09/19 10:25:52;;;;;;;10.40;2.75;;;18.50;99.90;;;;;;5002965;28;20124;-49
2023/09/19 10:28:21;;;;;;;12.55;2.83;;;18.50;99.90;;;;;;5003587;28;20069;-52
2023/09/19 10:30:51;;;;;;;9.52;2.75;;;18.50;99.90;;;;;;4996659;28;20458;-48
2023/09/19 10:33:22;;;;;;;11.40;3.03;;;18.70;99.90;;;;;;4989256;28;20124;-50
2023/09/19 10:35:51;;;;;;;8.80;2.55;;;18.80;99.90;;;;;;4983751;28;20046;-51
2023/09/19 10:38:23;;;;;;;8.25;2.05;;;18.90;99.90;;;;;;4982759;28;20133;-51
2023/09/19 10:40:51;;;;;;;12.57;3.05;;;19.00;99.90;;;;;;4990245;28;20180;-53
2023/09/19 10:43:19;;;;;;;12.93;3.22;;;18.90;99.90;;;;;;5002618;28;20038;-51
2023/09/19 10:45:49;;;;;;;10.98;2.53;;;18.80;99.90;;;;;;4990640;28;20049;-52
2023/09/19 10:48:19;;;;;;;11.55;2.83;;;18.80;99.90;;;;;;4986747;28;20092;-58
2023/09/19 10:50:59;;;;;;;11.82;3.10;;;19.00;99.90;;;;;;4984311;28;20630;-56
2023/09/19 10:53:26;;;;;;;8.80;2.80;;;19.00;99.90;;;;;;4986580;28;20061;-53
2023/09/19 10:55:59;;;;;;;15.13;3.25;;;19.00;99.90;;;;;;4986158;28;20386;-53
2023/09/19 10:58:29;;;;;;;13.68;2.67;;;19.10;99.90;;;;;;4986526;28;20516;-52
2023/09/19 11:01:01;;;;;;;10.38;2.78;;;19.00;99.90;;;;;;4987201;28;20050;-52
2023/09/19 11:03:33;;;;;;;9.98;2.28;;;19.00;99.90;;;;;;4985617;28;20073;-55
2023/09/19 11:06:27;;;;;;;10.20;3.17;;;19.10;99.60;;;;;;4986318;28;20049;-51
2023/09/19 11:11:41;;;;;;;12.15;3.13;;;19.20;99.20;;;;;;4985712;28;20074;-54
2023/09/19 11:14:25;;;;;;;14.98;3.10;;;19.00;99.30;;;;;;4984635;28;20105;-52
2023/09/19 11:17:15;;;;;;;9.80;2.65;;;18.70;99.90;;;;;;4985989;28;20436;-50
2023/09/19 11:22:49;;;;;;;12.15;3.05;;;18.60;99.90;;;;;;4991643;28;20049;-51
2023/09/19 11:25:30;;;;;;;10.82;2.88;;;18.70;99.90;;;;;;5004605;28;20042;-53
2023/09/19 11:28:21;;;;;;;14.35;2.88;;;18.80;99.90;;;;;;5005541;28;20124;-50
2023/09/19 11:30:53;;;;;;;7.00;2.22;;;19.00;99.60;;;;;;4994897;28;20058;-55
2023/09/19 11:33:46;;;;;;;10.88;2.85;;;19.00;99.90;;;;;;4995702;28;20481;-54
2023/09/19 11:36:24;;;;;;;10.52;2.80;;;19.00;99.90;;;;;;4997591;28;20077;-51
2023/09/19 11:38:49;;;;;;;12.95;2.83;;;19.00;99.90;;;;;;5018423;28;20054;-51
2023/09/19 11:41:25;;;;;;;10.50;2.70;;;19.00;99.70;;;;;;5003489;28;20606;-51
2023/09/19 11:44:06;;;;;;;10.68;2.42;;;19.00;99.90;;;;;;5005623;28;20056;-53
2023/09/19 11:46:51;;;;;;;10.98;3.13;;;19.00;99.90;;;;;;5003881;28;20049;-53
2023/09/19 11:49:21;;;;;;;9.15;2.35;;;19.00;99.90;;;;;;5003691;28;20078;-54
2023/09/19 11:51:51;;;;;;;7.38;2.20;;;19.20;99.90;;;;;;4996205;28;20101;-55
2023/09/19 11:54:27;;;;;;;12.15;2.67;;;19.30;99.90;;;;;;4994270;28;20704;-55
2023/09/19 11:56:54;;;;;;;11.85;2.50;;;19.30;99.70;;;;;;4993996;28;20396;-54
2023/09/19 11:59:22;;;;;;;9.77;2.13;;;19.20;99.90;;;;;;5002495;28;20702;-54
2023/09/19 12:01:59;;;;;;;8.60;2.70;;;19.10;99.90;;;;;;5004941;28;20103;-54
2023/09/19 12:04:43;;;;;;;12.93;2.97;;;19.10;99.90;;;;;;5003320;28;20132;-50
2023/09/19 12:07:15;;;;;;;12.13;2.80;;;18.90;99.90;;;;;;4985887;28;20046;-55
2023/09/19 12:09:49;;;;;;;13.50;2.88;;;18.80;99.90;;;;;;5000915;28;20528;-51
2023/09/19 12:12:26;;;;;;;9.43;2.38;;;18.80;99.90;;;;;;5004617;28;20057;-55
2023/09/19 12:14:53;;;;;;;13.00;2.50;;;18.80;99.90;;;;;;5005355;28;20497;-55
2023/09/19 12:17:22;;;;;;;9.15;2.22;;;19.00;99.90;;;;;;5003598;28;20050;-52
2023/09/19 12:19:56;;;;;;;8.50;2.25;;;18.90;99.90;;;;;;5000411;28;20108;-57
2023/09/19 12:22:22;;;;;;;8.18;1.80;;;18.90;99.90;;;;;;5000667;28;20046;-52
2023/09/19 12:24:48;;;;;;;8.00;2.13;;;18.90;99.90;;;;;;5003850;28;20060;-54
2023/09/19 12:27:15;;;;;;;8.10;2.30;;;18.90;99.90;;;;;;5003445;28;20046;-54
2023/09/19 12:29:45;;;;;;;11.75;2.42;;;18.90;99.90;;;;;;4996529;28;20038;-52
2023/09/19 12:32:10;;;;;;;8.07;1.65;;;18.80;99.90;;;;;;5003985;28;20127;-55
2023/09/19 12:34:42;;;;;;;9.90;2.38;;;18.80;99.90;;;;;;5004012;28;20104;-54
2023/09/19 12:37:21;;;;;;;10.48;2.38;;;18.80;99.90;;;;;;5003736;28;20396;-51
2023/09/19 12:39:50;;;;;;;8.43;2.28;;;18.80;99.90;;;;;;5000042;28;20038;-55
2023/09/19 12:42:18;;;;;;;8.77;2.22;;;18.80;99.90;;;;;;5003698;28;20053;-56
2023/09/19 12:44:46;;;;;;;10.30;2.70;;;18.70;99.90;;;;;;5004742;28;20061;-51
2023/09/19 12:47:20;;;;;;;11.90;2.35;;;18.60;99.90;;;;;;5003069;28;20117;-52
2023/09/19 12:50:18;;;;;;;8.27;2.58;;;18.70;99.90;;;;;;5005084;28;20519;-54
2023/09/19 12:52:48;;;;;;;9.50;2.38;;;18.50;99.90;;;;;;5003220;28;20121;-53
2023/09/19 12:55:35;;;;;;;7.97;2.42;;;18.50;99.90;;;;;;5003360;28;20042;-54
2023/09/19 12:58:15;;;;;;;11.98;2.50;;;18.50;99.90;;;;;;5004942;28;20053;-50
2023/09/19 13:00:44;;;;;;;11.38;2.65;;;18.40;99.90;;;;;;5004099;28;20104;-50
2023/09/19 13:03:16;;;;;;;8.70;2.20;;;18.60;99.90;;;;;;5002677;28;20042;-49
2023/09/19 13:05:56;;;;;;;7.72;1.70;;;18.70;99.90;;;;;;5004004;28;20049;-51
2023/09/19 13:08:37;;;;;;;9.85;2.35;;;18.80;99.90;;;;;;5003676;28;20389;-53